Time;durP1;ratioP1;P1;durP2;ratioP2;P2;SDS_P1;SDS_P2;PMS_P1;PMS_P2;Temp;Humidity;BMP_temperature;BMP_pressure;BME280_temperature;BME280_humidity;BME280_pressure;Samples;Min_cycle;Max_cycle;Signal;HPM_P1;HPM_P2
2021/09/05 00:01:44;;;;;;;3.03;2.43;;;9.40;99.90;;;;;;5074735;28;20205;-80
2021/09/05 00:04:09;;;;;;;3.80;3.03;;;9.40;99.90;;;;;;5074529;28;20178;-81
2021/09/05 00:06:35;;;;;;;4.10;2.83;;;9.40;99.90;;;;;;5066895;28;20181;-80
2021/09/05 00:09:01;;;;;;;4.33;2.80;;;9.40;99.90;;;;;;5057470;28;20182;-80
2021/09/05 00:11:27;;;;;;;5.57;3.03;;;9.60;99.90;;;;;;5074603;28;20251;-81
2021/09/05 00:13:52;;;;;;;4.47;3.00;;;9.60;99.90;;;;;;5072146;28;20177;-79
2021/09/05 00:16:19;;;;;;;4.17;2.80;;;9.70;99.90;;;;;;5054385;28;20623;-78
2021/09/05 00:18:44;;;;;;;5.40;3.10;;;9.90;99.90;;;;;;5054989;28;20300;-79
2021/09/05 00:21:10;;;;;;;4.13;3.00;;;9.90;99.90;;;;;;5054084;28;20232;-79
2021/09/05 00:23:35;;;;;;;3.93;2.60;;;9.90;99.90;;;;;;5054564;28;20181;-79
2021/09/05 00:26:01;;;;;;;5.97;3.50;;;9.90;99.90;;;;;;5070398;28;20186;-79
2021/09/05 00:28:27;;;;;;;3.80;2.93;;;9.80;99.90;;;;;;5072950;28;20189;-80
2021/09/05 00:30:52;;;;;;;3.77;2.60;;;9.80;99.90;;;;;;5072236;28;20221;-79
2021/09/05 00:33:18;;;;;;;5.00;3.23;;;9.80;99.90;;;;;;5054976;28;20186;-79
2021/09/05 00:35:43;;;;;;;4.43;2.63;;;9.80;99.90;;;;;;5070410;28;20173;-80
2021/09/05 00:38:09;;;;;;;4.60;2.53;;;9.80;99.90;;;;;;5071252;28;20185;-80
2021/09/05 00:40:34;;;;;;;4.20;3.00;;;9.80;99.90;;;;;;5054420;28;20686;-79
2021/09/05 00:43:00;;;;;;;3.97;2.63;;;9.80;99.90;;;;;;5054131;28;20824;-80
2021/09/05 00:45:26;;;;;;;5.53;3.17;;;9.80;99.90;;;;;;5071377;28;20212;-80
2021/09/05 00:47:51;;;;;;;4.47;2.30;;;9.60;99.90;;;;;;5071992;28;20813;-80
2021/09/05 00:50:17;;;;;;;3.97;2.63;;;9.60;99.90;;;;;;5071788;28;20213;-80
2021/09/05 00:52:43;;;;;;;3.80;2.60;;;9.50;99.90;;;;;;5054724;28;20178;-79
2021/09/05 00:55:09;;;;;;;4.57;2.80;;;9.50;99.90;;;;;;5071220;28;20189;-81
2021/09/05 00:57:35;;;;;;;3.93;2.50;;;9.40;99.90;;;;;;5072385;28;20184;-80
2021/09/05 01:00:00;;;;;;;5.93;2.80;;;9.30;99.90;;;;;;5053630;28;20298;-79
2021/09/05 01:02:26;;;;;;;4.40;3.30;;;9.20;99.90;;;;;;5072337;28;20676;-80
2021/09/05 01:04:52;;;;;;;4.40;3.03;;;9.10;99.90;;;;;;5072056;28;20221;-80
2021/09/05 01:07:18;;;;;;;5.53;3.47;;;9.00;99.90;;;;;;5071292;28;20268;-80
2021/09/05 01:09:44;;;;;;;5.67;3.93;;;8.80;99.90;;;;;;5071410;28;20733;-80
2021/09/05 01:12:10;;;;;;;3.93;3.03;;;8.80;99.90;;;;;;5070176;28;20236;-80
2021/09/05 01:14:35;;;;;;;4.40;2.73;;;8.80;99.90;;;;;;5070965;28;20648;-79
2021/09/05 01:17:01;;;;;;;5.60;3.47;;;8.60;99.90;;;;;;5070342;28;20208;-80
2021/09/05 01:19:27;;;;;;;4.37;2.97;;;8.70;99.90;;;;;;5070696;28;20663;-79
2021/09/05 01:21:53;;;;;;;5.80;3.53;;;8.70;99.90;;;;;;5070268;28;20248;-80
2021/09/05 01:24:23;;;;;;;4.53;3.10;;;8.80;99.90;;;;;;5052964;28;20185;-79
2021/09/05 01:26:50;;;;;;;5.27;3.00;;;8.80;99.90;;;;;;5052961;28;20207;-80
2021/09/05 01:29:16;;;;;;;4.40;3.40;;;8.70;99.90;;;;;;5070668;28;20185;-79
2021/09/05 01:31:44;;;;;;;5.90;3.43;;;8.80;99.90;;;;;;5070492;28;20213;-80
2021/09/05 01:34:10;;;;;;;4.57;3.27;;;8.90;99.90;;;;;;5070885;28;20189;-80
2021/09/05 01:36:38;;;;;;;4.30;3.20;;;8.80;99.90;;;;;;5051597;28;20313;-80
2021/09/05 01:39:05;;;;;;;5.23;3.67;;;8.90;99.90;;;;;;5070566;28;20827;-78
2021/09/05 01:41:31;;;;;;;6.03;3.47;;;8.80;99.90;;;;;;5069687;28;20631;-80
2021/09/05 01:44:01;;;;;;;6.67;3.50;;;8.80;99.90;;;;;;5052024;28;20623;-80
2021/09/05 01:46:27;;;;;;;7.80;3.53;;;8.90;99.90;;;;;;5069647;28;20188;-78
2021/09/05 01:48:53;;;;;;;6.33;3.90;;;9.00;99.90;;;;;;5070827;28;20181;-79
2021/09/05 01:51:18;;;;;;;5.30;3.90;;;8.90;99.90;;;;;;5069820;28;20250;-79
2021/09/05 01:53:44;;;;;;;5.87;3.17;;;8.90;99.90;;;;;;5069548;28;20243;-79
2021/09/05 01:56:10;;;;;;;5.37;2.83;;;8.90;99.90;;;;;;5051805;28;20245;-79
2021/09/05 01:58:35;;;;;;;5.00;3.53;;;8.80;99.90;;;;;;5070884;28;20247;-79
2021/09/05 02:01:01;;;;;;;4.00;3.00;;;8.80;99.90;;;;;;5069477;28;20853;-81
2021/09/05 02:03:26;;;;;;;4.40;3.07;;;8.80;99.90;;;;;;5069779;28;20260;-79
2021/09/05 02:05:52;;;;;;;6.00;3.63;;;8.80;99.90;;;;;;5051617;28;20191;-79
2021/09/05 02:08:18;;;;;;;4.90;3.53;;;8.80;99.90;;;;;;5051521;28;20324;-78
2021/09/05 02:10:43;;;;;;;4.73;3.57;;;8.80;99.90;;;;;;5066049;28;20216;-78
2021/09/05 02:13:09;;;;;;;4.63;2.90;;;8.70;99.90;;;;;;5063156;28;20588;-79
2021/09/05 02:15:34;;;;;;;4.63;3.17;;;8.70;99.90;;;;;;5061943;28;20577;-80
2021/09/05 02:18:00;;;;;;;4.17;3.33;;;8.60;99.90;;;;;;5065818;28;20880;-78
2021/09/05 02:20:25;;;;;;;3.67;3.20;;;8.60;99.90;;;;;;5066366;28;20389;-80
2021/09/05 02:22:51;;;;;;;5.27;3.77;;;8.70;99.90;;;;;;5048790;28;20186;-79
2021/09/05 02:25:17;;;;;;;5.70;3.80;;;8.70;99.90;;;;;;5067059;28;20193;-79
2021/09/05 02:27:43;;;;;;;7.30;3.53;;;8.60;99.90;;;;;;5066613;28;20212;-80
2021/09/05 02:30:10;;;;;;;5.20;3.37;;;8.50;99.90;;;;;;5048334;28;20393;-80
2021/09/05 02:32:36;;;;;;;4.67;3.27;;;8.50;99.90;;;;;;5066604;28;20197;-79
2021/09/05 02:35:02;;;;;;;4.23;3.10;;;8.50;99.90;;;;;;5066770;28;20239;-79
2021/09/05 02:37:27;;;;;;;5.37;2.93;;;8.60;99.90;;;;;;5065791;28;20181;-80
2021/09/05 02:39:53;;;;;;;4.00;2.87;;;8.70;99.90;;;;;;5048906;28;20197;-79
2021/09/05 02:42:19;;;;;;;4.40;2.90;;;8.60;99.90;;;;;;5065997;28;20213;-80
2021/09/05 02:44:44;;;;;;;3.40;2.60;;;8.70;99.90;;;;;;5066307;28;20185;-79
2021/09/05 02:47:10;;;;;;;4.40;2.97;;;8.70;99.90;;;;;;5065157;28;21138;-79
2021/09/05 02:49:35;;;;;;;3.77;2.63;;;8.70;99.90;;;;;;5065968;28;20177;-79
2021/09/05 02:52:01;;;;;;;4.63;3.27;;;8.70;99.90;;;;;;5064641;28;20276;-79
2021/09/05 02:54:26;;;;;;;5.13;3.03;;;8.60;99.90;;;;;;5065529;28;20207;-79
2021/09/05 02:56:52;;;;;;;4.03;3.03;;;8.60;99.90;;;;;;5047679;28;20170;-78
2021/09/05 02:59:18;;;;;;;4.37;2.90;;;8.60;99.90;;;;;;5066217;28;20182;-79
2021/09/05 03:01:43;;;;;;;4.87;3.27;;;8.50;99.90;;;;;;5047552;28;20209;-79
2021/09/05 03:04:09;;;;;;;3.77;3.07;;;8.50;99.90;;;;;;5065410;28;20197;-80
2021/09/05 03:06:36;;;;;;;4.30;2.87;;;8.50;99.90;;;;;;5047403;28;20194;-79
2021/09/05 03:09:02;;;;;;;3.60;2.77;;;8.40;99.90;;;;;;5069149;28;20239;-80
2021/09/05 03:11:27;;;;;;;4.17;3.00;;;8.40;99.90;;;;;;5052679;28;20225;-80
2021/09/05 03:13:53;;;;;;;3.97;3.07;;;8.40;99.90;;;;;;5070813;28;20346;-79
2021/09/05 03:16:18;;;;;;;4.60;3.03;;;8.20;99.90;;;;;;5070235;28;20613;-80
2021/09/05 03:18:44;;;;;;;6.20;3.40;;;8.20;99.90;;;;;;5070273;28;20181;-79
2021/09/05 03:21:09;;;;;;;5.43;2.70;;;8.10;99.90;;;;;;5070085;28;20240;-79
2021/09/05 03:23:35;;;;;;;4.33;2.57;;;7.90;99.90;;;;;;5070221;28;20189;-80
2021/09/05 03:26:01;;;;;;;3.50;2.73;;;7.90;99.90;;;;;;5051281;28;20197;-80
2021/09/05 03:28:26;;;;;;;4.00;2.63;;;8.00;99.90;;;;;;5069769;28;20193;-80
2021/09/05 03:30:52;;;;;;;5.90;2.93;;;8.00;99.90;;;;;;5068798;28;20347;-78
2021/09/05 03:33:17;;;;;;;3.70;2.90;;;8.10;99.90;;;;;;5049851;28;20296;-79
2021/09/05 03:35:43;;;;;;;5.20;2.77;;;8.20;99.90;;;;;;5071280;28;20190;-79
2021/09/05 03:38:08;;;;;;;4.83;3.03;;;8.20;99.90;;;;;;5071334;28;20188;-79
2021/09/05 03:40:34;;;;;;;3.70;2.90;;;8.10;99.90;;;;;;5053803;28;20268;-79
2021/09/05 03:43:00;;;;;;;3.90;2.40;;;8.20;99.90;;;;;;5071165;28;20281;-80
2021/09/05 03:45:26;;;;;;;4.17;2.70;;;8.10;99.90;;;;;;5054021;28;20651;-79
2021/09/05 03:47:51;;;;;;;4.40;2.80;;;8.00;99.90;;;;;;5054808;28;20205;-78
2021/09/05 03:50:17;;;;;;;4.93;2.80;;;8.00;99.90;;;;;;5053924;28;20201;-79
2021/09/05 03:52:44;;;;;;;4.30;2.23;;;7.90;99.90;;;;;;5071489;28;20182;-78
2021/09/05 03:55:10;;;;;;;4.33;3.60;;;7.90;99.90;;;;;;5071974;28;20178;-78
2021/09/05 03:57:36;;;;;;;3.97;2.80;;;7.90;99.90;;;;;;5071434;28;20288;-79
2021/09/05 04:00:03;;;;;;;4.73;2.60;;;8.00;99.90;;;;;;5072213;28;20322;-79
2021/09/05 04:02:28;;;;;;;3.43;2.57;;;8.00;99.90;;;;;;5054123;28;20210;-78
2021/09/05 04:04:54;;;;;;;2.97;2.30;;;7.90;99.90;;;;;;5071549;28;20201;-78
2021/09/05 04:07:20;;;;;;;4.47;3.03;;;7.90;99.90;;;;;;5071462;28;20189;-79
2021/09/05 04:12:31;;;;;;;3.67;2.47;;;8.00;99.90;;;;;;5071335;28;20278;-78
2021/09/05 04:14:56;;;;;;;3.73;2.50;;;7.80;99.90;;;;;;5053125;28;20193;-80
2021/09/05 04:17:23;;;;;;;4.53;2.60;;;7.80;99.90;;;;;;5053508;28;20239;-78
2021/09/05 04:19:48;;;;;;;5.33;3.40;;;7.80;99.90;;;;;;5071575;28;20276;-78
2021/09/05 04:22:14;;;;;;;5.63;3.20;;;7.70;99.90;;;;;;5071605;28;20683;-78
2021/09/05 04:24:40;;;;;;;3.10;2.70;;;7.80;99.90;;;;;;5070888;28;20273;-79
2021/09/05 04:27:05;;;;;;;3.80;2.67;;;7.90;99.90;;;;;;5071026;28;20177;-78
2021/09/05 04:29:31;;;;;;;3.80;2.83;;;8.00;99.90;;;;;;5071123;28;20182;-79
2021/09/05 04:31:56;;;;;;;7.30;3.33;;;8.00;99.90;;;;;;5070782;28;20205;-79
2021/09/05 04:34:22;;;;;;;4.47;2.90;;;7.90;99.90;;;;;;5070581;28;20176;-80
2021/09/05 04:36:48;;;;;;;3.87;2.90;;;7.80;99.90;;;;;;5071018;28;20216;-78
2021/09/05 04:39:13;;;;;;;6.17;2.73;;;7.90;99.90;;;;;;5052400;28;20268;-79
2021/09/05 04:41:39;;;;;;;4.20;3.03;;;7.60;99.90;;;;;;5051803;28;20207;-78
2021/09/05 04:44:05;;;;;;;3.90;2.80;;;7.50;99.90;;;;;;5069333;28;20189;-80
2021/09/05 04:46:30;;;;;;;4.50;3.10;;;7.70;99.90;;;;;;5069736;28;20798;-80
2021/09/05 04:48:56;;;;;;;3.80;2.77;;;7.60;99.90;;;;;;5052628;28;20197;-78
2021/09/05 04:51:21;;;;;;;3.20;2.47;;;7.50;99.90;;;;;;5052268;28;20209;-78
2021/09/05 04:53:47;;;;;;;7.60;2.63;;;7.40;99.90;;;;;;5069616;28;20320;-79
2021/09/05 04:56:14;;;;;;;4.47;2.63;;;7.50;99.90;;;;;;5069657;28;20181;-79
2021/09/05 04:58:43;;;;;;;2.50;2.30;;;7.40;99.90;;;;;;5069935;28;20170;-78
2021/09/05 05:01:08;;;;;;;3.93;2.53;;;7.40;99.90;;;;;;5070325;28;20655;-78
2021/09/05 05:03:34;;;;;;;3.30;2.13;;;7.40;99.90;;;;;;5069483;28;20231;-78
2021/09/05 05:06:03;;;;;;;4.30;2.77;;;7.50;99.90;;;;;;5051385;28;20580;-78
2021/09/05 05:08:28;;;;;;;6.27;3.33;;;7.40;99.90;;;;;;5069969;28;20178;-78
2021/09/05 05:10:54;;;;;;;5.83;3.53;;;7.30;99.90;;;;;;5069482;28;20569;-79
2021/09/05 05:13:19;;;;;;;5.63;3.30;;;7.30;99.90;;;;;;5051615;28;20204;-77
2021/09/05 05:15:45;;;;;;;4.60;3.17;;;7.60;99.90;;;;;;5069102;28;20190;-79
2021/09/05 05:18:10;;;;;;;4.20;2.97;;;7.90;99.90;;;;;;5068840;28;20177;-78
2021/09/05 05:20:36;;;;;;;4.60;3.53;;;7.90;99.90;;;;;;5051011;28;20199;-77
2021/09/05 05:23:02;;;;;;;6.77;3.03;;;8.10;99.90;;;;;;5069085;28;20240;-78
2021/09/05 05:25:27;;;;;;;7.00;3.63;;;8.20;99.90;;;;;;5069142;28;20189;-79
2021/09/05 05:27:53;;;;;;;5.90;3.20;;;8.20;99.90;;;;;;5051820;28;20288;-79
2021/09/05 05:30:18;;;;;;;5.73;3.37;;;8.30;99.90;;;;;;5050190;28;20205;-78
2021/09/05 05:32:44;;;;;;;5.30;2.70;;;8.30;99.90;;;;;;5068933;28;20766;-79
2021/09/05 05:35:10;;;;;;;4.53;3.37;;;8.40;99.90;;;;;;5067574;28;20259;-78
2021/09/05 05:37:35;;;;;;;4.07;2.77;;;8.50;99.90;;;;;;5065064;28;21265;-78
2021/09/05 05:40:02;;;;;;;5.70;3.37;;;8.80;99.90;;;;;;5065223;28;20237;-79
2021/09/05 05:42:28;;;;;;;4.63;2.70;;;8.80;99.90;;;;;;5048569;28;20177;-78
2021/09/05 05:44:53;;;;;;;3.73;2.70;;;9.00;99.90;;;;;;5065386;28;20181;-78
2021/09/05 05:47:19;;;;;;;6.57;3.37;;;9.10;99.90;;;;;;5064799;28;20173;-77
2021/09/05 05:49:46;;;;;;;4.57;3.33;;;9.20;99.90;;;;;;5064576;28;20197;-78
2021/09/05 05:52:13;;;;;;;5.50;3.40;;;9.30;99.90;;;;;;5063759;28;20237;-78
2021/09/05 05:54:38;;;;;;;4.93;2.90;;;9.50;99.90;;;;;;5067136;28;20178;-80
2021/09/05 05:57:04;;;;;;;4.23;2.87;;;9.60;99.90;;;;;;5066897;28;20188;-78
2021/09/05 05:59:30;;;;;;;4.20;2.67;;;9.70;99.90;;;;;;5049269;28;20221;-78
2021/09/05 06:01:56;;;;;;;4.17;3.03;;;9.80;99.90;;;;;;5048327;28;20174;-78
2021/09/05 06:04:21;;;;;;;3.17;2.50;;;9.90;99.90;;;;;;5065767;28;20186;-78
2021/09/05 06:06:47;;;;;;;4.53;2.70;;;10.00;99.90;;;;;;5065977;28;20181;-79
2021/09/05 06:09:13;;;;;;;3.73;2.63;;;10.00;99.90;;;;;;5065958;28;20185;-79
2021/09/05 06:11:38;;;;;;;4.23;3.03;;;10.20;99.90;;;;;;5065576;28;20245;-78
2021/09/05 06:14:05;;;;;;;4.10;3.00;;;10.40;99.90;;;;;;5065574;28;20189;-78
2021/09/05 06:16:30;;;;;;;3.43;2.70;;;10.60;99.90;;;;;;5047359;28;20193;-78
2021/09/05 06:18:56;;;;;;;3.23;2.60;;;10.60;99.90;;;;;;5065493;28;20222;-77
2021/09/05 06:21:22;;;;;;;4.20;2.93;;;10.60;99.90;;;;;;5065889;28;20659;-78
2021/09/05 06:23:47;;;;;;;2.73;2.20;;;10.80;99.90;;;;;;5048105;28;20227;-78
2021/09/05 06:26:13;;;;;;;5.28;3.00;;;10.90;99.90;;;;;;5065527;28;20581;-78
2021/09/05 06:28:38;;;;;;;4.25;2.78;;;11.20;99.90;;;;;;5066204;28;20256;-79
2021/09/05 06:31:04;;;;;;;4.60;2.85;;;11.70;99.90;;;;;;5047030;28;20205;-79
2021/09/05 06:33:29;;;;;;;4.47;2.40;;;12.20;99.90;;;;;;5065622;28;20177;-79
2021/09/05 06:35:55;;;;;;;4.43;3.35;;;12.50;99.90;;;;;;5065314;28;20558;-78
2021/09/05 06:38:21;;;;;;;4.90;2.80;;;12.40;99.90;;;;;;5065375;28;20179;-79
2021/09/05 06:40:46;;;;;;;4.70;2.70;;;12.20;99.90;;;;;;5065737;28;20255;-79
2021/09/05 06:43:12;;;;;;;3.42;2.72;;;12.10;99.90;;;;;;5050018;28;20619;-78
2021/09/05 06:45:37;;;;;;;4.53;3.25;;;12.20;99.90;;;;;;5069812;28;20184;-78
2021/09/05 06:48:03;;;;;;;5.40;3.30;;;12.30;99.90;;;;;;5069296;28;20185;-77
2021/09/05 06:50:29;;;;;;;3.92;2.90;;;12.30;99.90;;;;;;5070132;28;20598;-80
2021/09/05 06:52:55;;;;;;;5.70;3.40;;;12.30;99.90;;;;;;5069484;28;20182;-78
2021/09/05 06:55:20;;;;;;;4.90;3.38;;;12.40;99.90;;;;;;5069073;28;20181;-79
2021/09/05 06:57:46;;;;;;;3.95;2.97;;;12.50;99.90;;;;;;5069275;28;20181;-78
2021/09/05 07:00:12;;;;;;;4.18;2.92;;;12.70;99.90;;;;;;5069356;28;20201;-79
2021/09/05 07:02:37;;;;;;;4.50;2.88;;;12.80;99.90;;;;;;5069260;28;20212;-77
2021/09/05 07:05:04;;;;;;;5.85;2.97;;;12.90;99.90;;;;;;5051294;28;20242;-78
2021/09/05 07:07:30;;;;;;;4.07;2.60;;;13.00;99.90;;;;;;5068298;28;20265;-78
2021/09/05 07:09:55;;;;;;;4.47;3.53;;;13.10;99.90;;;;;;5049473;28;20328;-78
2021/09/05 07:12:21;;;;;;;5.18;3.45;;;13.20;99.90;;;;;;5066746;28;20205;-78
2021/09/05 07:14:47;;;;;;;5.78;3.17;;;13.30;99.90;;;;;;5066368;28;20655;-77
2021/09/05 07:17:13;;;;;;;6.20;3.10;;;13.50;99.90;;;;;;5066656;28;20206;-82
2021/09/05 07:19:40;;;;;;;6.07;3.60;;;13.60;99.90;;;;;;5067657;28;20438;-80
2021/09/05 07:22:05;;;;;;;6.10;3.50;;;13.70;99.90;;;;;;5048440;28;20559;-79
2021/09/05 07:24:31;;;;;;;5.13;3.20;;;13.90;99.90;;;;;;5048007;28;20181;-79
2021/09/05 07:26:57;;;;;;;5.70;3.10;;;14.00;99.90;;;;;;5047757;28;20189;-80
2021/09/05 07:29:22;;;;;;;6.10;3.45;;;14.10;99.90;;;;;;5064632;28;20253;-81
2021/09/05 07:31:48;;;;;;;5.57;3.13;;;14.40;99.90;;;;;;5065179;28;20609;-80
2021/09/05 07:34:14;;;;;;;5.20;3.40;;;14.50;99.90;;;;;;5047778;28;20276;-81
2021/09/05 07:36:40;;;;;;;6.50;3.65;;;14.50;99.90;;;;;;5066408;28;20643;-77
2021/09/05 07:39:06;;;;;;;6.75;3.55;;;14.60;99.90;;;;;;5066110;28;20659;-78
2021/09/05 07:41:31;;;;;;;5.68;3.78;;;14.60;99.90;;;;;;5066108;28;20205;-77
2021/09/05 07:43:57;;;;;;;5.28;3.67;;;14.80;99.90;;;;;;5066198;28;20655;-81
2021/09/05 07:46:22;;;;;;;5.65;3.92;;;14.80;99.90;;;;;;5065892;28;20508;-79
2021/09/05 07:48:48;;;;;;;6.75;3.45;;;14.90;99.90;;;;;;5067756;28;20193;-79
2021/09/05 07:51:14;;;;;;;5.65;3.60;;;15.10;99.90;;;;;;5047562;28;20221;-79
2021/09/05 07:53:39;;;;;;;5.10;3.70;;;15.30;99.90;;;;;;5065679;28;20205;-79
2021/09/05 07:56:05;;;;;;;6.50;4.03;;;15.60;99.90;;;;;;5048015;28;20178;-78
2021/09/05 07:58:30;;;;;;;5.43;4.22;;;15.60;99.90;;;;;;5065603;28;20234;-78
2021/09/05 08:00:56;;;;;;;6.72;3.80;;;15.60;99.90;;;;;;5064832;28;20288;-79
2021/09/05 08:03:22;;;;;;;6.30;3.88;;;15.70;99.90;;;;;;5065301;28;20209;-79
2021/09/05 08:05:47;;;;;;;5.00;3.33;;;15.90;99.90;;;;;;5046647;28;20564;-78
2021/09/05 08:08:13;;;;;;;7.07;4.18;;;16.10;99.90;;;;;;5046471;28;20209;-77
2021/09/05 08:10:39;;;;;;;5.82;3.65;;;16.30;99.90;;;;;;5065711;28;20652;-79
2021/09/05 08:13:05;;;;;;;4.82;3.38;;;16.30;99.90;;;;;;5047749;28;20472;-78
2021/09/05 08:15:30;;;;;;;6.30;3.78;;;16.40;99.90;;;;;;5046666;28;20319;-80
2021/09/05 08:17:56;;;;;;;7.60;4.32;;;16.50;99.90;;;;;;5046178;28;20554;-80
2021/09/05 08:20:22;;;;;;;6.07;3.83;;;16.50;99.90;;;;;;5065366;28;20244;-80
2021/09/05 08:22:47;;;;;;;6.53;3.67;;;16.10;99.90;;;;;;5046909;28;20651;-79
2021/09/05 08:25:14;;;;;;;6.80;4.40;;;16.20;99.90;;;;;;5063937;28;20214;-79
2021/09/05 08:27:39;;;;;;;7.28;4.45;;;16.30;99.90;;;;;;5064269;28;20184;-79
2021/09/05 08:30:06;;;;;;;7.28;4.10;;;16.40;99.90;;;;;;5064322;28;20585;-81
2021/09/05 08:32:31;;;;;;;7.40;4.05;;;16.60;99.90;;;;;;5065514;28;20205;-80
2021/09/05 08:34:57;;;;;;;6.22;4.03;;;16.50;99.90;;;;;;5047042;28;20196;-78
2021/09/05 08:37:23;;;;;;;5.95;4.30;;;16.70;99.90;;;;;;5047783;28;20178;-79
2021/09/05 08:39:48;;;;;;;8.57;4.53;;;16.60;99.90;;;;;;5064904;28;20252;-79
2021/09/05 08:42:15;;;;;;;7.70;4.43;;;17.00;99.90;;;;;;5046374;28;20206;-78
2021/09/05 08:44:41;;;;;;;11.43;5.15;;;17.00;99.90;;;;;;5044287;28;20178;-79
2021/09/05 08:47:08;;;;;;;7.70;4.18;;;17.00;99.90;;;;;;5043659;28;20194;-78
2021/09/05 08:49:35;;;;;;;6.18;4.28;;;17.20;99.90;;;;;;5043220;28;20235;-79
2021/09/05 08:52:02;;;;;;;8.77;4.30;;;17.40;99.90;;;;;;5043847;28;20269;-79
2021/09/05 08:54:28;;;;;;;6.80;4.60;;;17.60;99.90;;;;;;5061842;28;20577;-79
2021/09/05 08:56:54;;;;;;;5.60;3.83;;;17.60;99.90;;;;;;5062376;28;20228;-79
2021/09/05 08:59:20;;;;;;;6.95;3.97;;;17.60;99.90;;;;;;5062338;28;20625;-77
2021/09/05 09:01:54;;;;;;;5.90;3.40;;;17.60;99.90;;;;;;5063133;28;20275;-79
2021/09/05 09:04:21;;;;;;;9.18;4.15;;;17.60;99.90;;;;;;5044735;28;20272;-78
2021/09/05 09:06:47;;;;;;;8.65;4.15;;;17.60;99.90;;;;;;5063439;28;20185;-80
2021/09/05 09:09:13;;;;;;;6.78;4.15;;;17.60;99.90;;;;;;5045389;28;20185;-76
2021/09/05 09:11:55;;;;;;;9.23;4.55;;;17.40;99.90;;;;;;5047837;28;20316;-79
2021/09/05 09:14:41;;;;;;;6.82;3.80;;;17.70;99.90;;;;;;5065561;28;20182;-79
2021/09/05 09:17:09;;;;;;;8.02;4.03;;;17.70;99.90;;;;;;5061147;28;20197;-79
2021/09/05 09:19:36;;;;;;;6.22;3.70;;;17.70;99.90;;;;;;5064255;28;20173;-78
2021/09/05 09:22:05;;;;;;;7.32;4.50;;;17.90;99.90;;;;;;5045317;28;20678;-79
2021/09/05 09:24:43;;;;;;;7.35;3.78;;;18.00;99.90;;;;;;5045284;28;20181;-79
2021/09/05 09:27:11;;;;;;;6.70;4.43;;;18.40;99.90;;;;;;5045170;28;20570;-79
2021/09/05 09:29:37;;;;;;;6.28;4.20;;;18.50;99.90;;;;;;5063521;28;20664;-81
2021/09/05 09:32:08;;;;;;;7.70;4.32;;;18.70;99.90;;;;;;5063415;28;20221;-79
2021/09/05 09:34:46;;;;;;;6.60;3.65;;;18.80;99.90;;;;;;5065582;28;20178;-79
2021/09/05 09:37:17;;;;;;;4.85;3.72;;;18.90;99.90;;;;;;5046614;28;20185;-79
2021/09/05 09:39:54;;;;;;;7.80;3.63;;;18.80;99.90;;;;;;5062964;28;20197;-79
2021/09/05 09:42:33;;;;;;;6.35;4.20;;;18.70;99.90;;;;;;5044121;28;20205;-78
2021/09/05 09:45:00;;;;;;;10.27;3.38;;;18.70;99.90;;;;;;5062748;28;20654;-79
2021/09/05 09:47:45;;;;;;;6.72;3.85;;;18.70;99.90;;;;;;5063386;28;20235;-80
2021/09/05 09:50:13;;;;;;;6.25;3.70;;;18.90;99.90;;;;;;5063714;28;20675;-81
2021/09/05 09:52:40;;;;;;;6.07;3.72;;;19.00;99.90;;;;;;5046083;28;20726;-81
2021/09/05 09:55:07;;;;;;;5.18;3.65;;;19.10;99.90;;;;;;5045793;28;20217;-80
2021/09/05 09:57:32;;;;;;;6.07;4.03;;;19.30;99.90;;;;;;5062781;28;20648;-81
2021/09/05 10:00:00;;;;;;;4.25;3.60;;;19.60;99.90;;;;;;5062206;28;20205;-80
2021/09/05 10:02:27;;;;;;;6.97;3.95;;;19.50;99.90;;;;;;5062631;28;20642;-81
2021/09/05 10:04:53;;;;;;;6.35;3.60;;;19.40;99.90;;;;;;5062090;28;20319;-79
2021/09/05 10:07:22;;;;;;;5.25;3.03;;;19.20;99.90;;;;;;5062364;28;20628;-80
2021/09/05 10:09:48;;;;;;;4.80;3.15;;;19.10;99.90;;;;;;5044652;28;20322;-79
2021/09/05 10:12:18;;;;;;;6.22;3.63;;;19.30;99.90;;;;;;5044226;28;20213;-79
2021/09/05 10:14:53;;;;;;;4.15;3.05;;;19.40;99.90;;;;;;5062352;28;20686;-80
2021/09/05 10:17:22;;;;;;;6.55;3.35;;;19.40;99.90;;;;;;5062427;28;20311;-78
2021/09/05 10:19:49;;;;;;;4.88;3.13;;;19.40;99.90;;;;;;5043866;28;20479;-77
2021/09/05 10:22:19;;;;;;;6.68;3.72;;;19.60;99.90;;;;;;5044449;28;20186;-79
2021/09/05 10:24:51;;;;;;;4.55;3.25;;;19.80;99.90;;;;;;5062613;28;20280;-82
2021/09/05 10:27:28;;;;;;;5.53;3.55;;;19.90;99.90;;;;;;5046055;28;20192;-76
2021/09/05 10:30:09;;;;;;;4.95;3.20;;;20.00;99.90;;;;;;5046849;28;20208;-82
2021/09/05 10:32:58;;;;;;;4.97;3.33;;;20.30;99.90;;;;;;5051656;28;20208;-80
2021/09/05 10:35:26;;;;;;;4.95;3.28;;;20.40;99.90;;;;;;5062759;28;20177;-79
2021/09/05 10:38:21;;;;;;;4.32;3.00;;;20.10;99.90;;;;;;5062546;28;20174;-80
2021/09/05 10:40:58;;;;;;;5.03;3.50;;;19.60;99.90;;;;;;5044471;28;20225;-78
2021/09/05 10:43:43;;;;;;;7.40;3.83;;;19.30;99.90;;;;;;5061954;28;20200;-78
2021/09/05 10:46:08;;;;;;;4.55;3.22;;;19.30;99.90;;;;;;5062854;28;20645;-80
2021/09/05 10:48:38;;;;;;;4.53;3.25;;;19.50;99.90;;;;;;5062079;28;20223;-79
2021/09/05 10:51:09;;;;;;;5.80;3.08;;;19.40;99.90;;;;;;5061888;28;20432;-80
2021/09/05 10:53:37;;;;;;;4.75;3.45;;;19.30;99.90;;;;;;5044246;28;20173;-80
2021/09/05 10:56:14;;;;;;;6.18;3.75;;;19.40;99.90;;;;;;5061582;28;20186;-79
2021/09/05 10:58:45;;;;;;;6.05;3.85;;;19.70;99.90;;;;;;5061992;28;20177;-79
2021/09/05 11:01:27;;;;;;;5.78;3.22;;;19.70;99.90;;;;;;5062423;28;20209;-80
2021/09/05 11:04:11;;;;;;;6.85;3.25;;;19.70;99.90;;;;;;5061734;28;20554;-79
2021/09/05 11:06:47;;;;;;;8.07;3.17;;;19.90;99.90;;;;;;5050021;28;20227;-79
2021/09/05 11:12:03;;;;;;;5.03;3.50;;;19.80;99.90;;;;;;5061579;28;20213;-79
2021/09/05 11:14:35;;;;;;;7.60;3.60;;;19.80;99.90;;;;;;5061964;28;20181;-79
2021/09/05 11:17:10;;;;;;;4.78;3.45;;;19.90;99.90;;;;;;5043731;28;20670;-79
2021/09/05 11:19:38;;;;;;;4.15;3.08;;;19.60;99.90;;;;;;5043908;28;20632;-78
2021/09/05 11:22:05;;;;;;;6.10;3.47;;;19.80;99.90;;;;;;5061355;28;20181;-80
2021/09/05 11:24:31;;;;;;;5.68;3.70;;;19.90;99.90;;;;;;5043718;28;20552;-80
2021/09/05 11:26:58;;;;;;;4.50;3.45;;;19.80;99.90;;;;;;5061612;28;20198;-79
2021/09/05 11:29:26;;;;;;;4.60;3.38;;;19.60;99.90;;;;;;5064550;28;20209;-79
2021/09/05 11:31:51;;;;;;;7.72;4.03;;;19.60;99.90;;;;;;5065164;28;20639;-79
2021/09/05 11:34:17;;;;;;;4.75;3.20;;;19.40;99.90;;;;;;5065181;28;20217;-79
2021/09/05 11:36:44;;;;;;;6.97;3.95;;;19.60;99.90;;;;;;5064795;28;20183;-79
2021/09/05 11:39:10;;;;;;;7.85;4.35;;;19.80;99.90;;;;;;5046566;28;20193;-79
2021/09/05 11:41:35;;;;;;;6.20;4.25;;;20.00;99.90;;;;;;5047553;28;20209;-79
2021/09/05 11:44:01;;;;;;;5.80;4.00;;;19.90;99.90;;;;;;5064616;28;20258;-78
2021/09/05 11:46:27;;;;;;;4.70;3.35;;;20.00;99.90;;;;;;5065033;28;20193;-80
2021/09/05 11:48:57;;;;;;;8.23;4.35;;;20.00;99.90;;;;;;5064664;28;20209;-79
2021/09/05 11:51:22;;;;;;;6.20;3.60;;;20.00;99.90;;;;;;5046472;28;20551;-80
2021/09/05 11:54:01;;;;;;;5.07;3.55;;;20.10;99.90;;;;;;5064427;28;20213;-80
2021/09/05 11:56:30;;;;;;;4.95;3.70;;;19.90;99.90;;;;;;5066923;28;20169;-80
2021/09/05 11:59:08;;;;;;;5.72;3.78;;;20.00;99.90;;;;;;5048471;28;20173;-79
2021/09/05 12:01:34;;;;;;;8.73;3.75;;;19.90;99.90;;;;;;5065941;28;20683;-80
2021/09/05 12:04:01;;;;;;;5.43;3.63;;;19.70;99.90;;;;;;5066020;28;20196;-77
2021/09/05 12:06:27;;;;;;;6.95;3.90;;;19.60;99.90;;;;;;5067796;28;20211;-78
2021/09/05 12:08:53;;;;;;;4.63;3.22;;;19.80;99.90;;;;;;5049218;28;20284;-81
2021/09/05 12:11:18;;;;;;;7.47;4.13;;;19.90;99.90;;;;;;5066809;28;20842;-81
2021/09/05 12:13:54;;;;;;;6.18;4.00;;;19.80;99.90;;;;;;5047921;28;20173;-82
2021/09/05 12:16:30;;;;;;;5.45;3.60;;;19.90;99.90;;;;;;5047906;28;20225;-79
2021/09/05 12:19:01;;;;;;;6.57;4.05;;;19.90;99.90;;;;;;5048278;28;20178;-81
2021/09/05 12:21:35;;;;;;;7.18;4.50;;;19.90;99.90;;;;;;5066686;28;20225;-80
2021/09/05 12:24:02;;;;;;;5.97;4.22;;;19.90;99.90;;;;;;5047761;28;20196;-82
2021/09/05 12:26:27;;;;;;;4.32;3.63;;;19.90;99.90;;;;;;5048426;28;20428;-81
2021/09/05 12:29:01;;;;;;;6.15;3.97;;;20.10;99.90;;;;;;5065491;28;20361;-81
2021/09/05 12:31:46;;;;;;;8.80;4.35;;;20.30;99.90;;;;;;5066028;28;20250;-81
2021/09/05 12:34:38;;;;;;;5.50;3.67;;;20.40;99.90;;;;;;5047353;28;20212;-78
2021/09/05 12:37:16;;;;;;;5.90;3.75;;;20.30;99.90;;;;;;5047346;28;20562;-77
2021/09/05 12:39:42;;;;;;;5.40;4.28;;;20.20;99.90;;;;;;5045676;28;20185;-78
2021/09/05 12:42:09;;;;;;;6.30;4.45;;;20.30;99.90;;;;;;5065467;28;20310;-78
2021/09/05 12:44:51;;;;;;;8.70;4.13;;;20.30;99.90;;;;;;5065023;28;20173;-77
2021/09/05 12:47:25;;;;;;;5.95;4.10;;;20.30;99.90;;;;;;5047384;28;20185;-79
2021/09/05 12:49:53;;;;;;;6.20;4.20;;;20.20;99.90;;;;;;5048012;28;20206;-81
2021/09/05 12:52:31;;;;;;;5.22;3.92;;;20.10;99.90;;;;;;5049004;28;20216;-81
2021/09/05 12:54:59;;;;;;;5.63;4.20;;;20.10;99.90;;;;;;5050162;28;20193;-80
2021/09/05 12:57:25;;;;;;;7.07;4.05;;;20.30;99.90;;;;;;5050593;28;20663;-80